createdAt,value
2023-05-10T00:02:30.010Z,11.57
2023-05-10T00:07:30.185Z,10.30
2023-05-10T00:10:00.343Z,10.77
2023-05-10T00:12:30.520Z,10.57
2023-05-10T00:15:00.854Z,10.40
2023-05-10T00:17:31.124Z,9.82
2023-05-10T00:20:01.428Z,9.63
2023-05-10T00:22:31.646Z,9.50
2023-05-10T00:25:02.552Z,10.38
2023-05-10T00:27:32.733Z,9.90
2023-05-10T00:30:02.841Z,9.85
2023-05-10T00:32:33.212Z,9.60
2023-05-10T00:35:03.640Z,9.80
2023-05-10T00:37:34.029Z,9.93
2023-05-10T00:40:04.249Z,12.60
2023-05-10T00:42:34.498Z,9.70
2023-05-10T00:45:05.131Z,9.83
2023-05-10T00:47:35.925Z,9.40
2023-05-10T00:50:06.702Z,10.73
2023-05-10T00:52:37.148Z,9.98
2023-05-10T00:55:08.478Z,10.55
2023-05-10T00:57:38.970Z,9.70
2023-05-10T01:00:09.955Z,10.90
2023-05-10T01:02:40.453Z,11.05
2023-05-10T01:05:11.043Z,10.97
2023-05-10T01:07:41.612Z,10.93
2023-05-10T01:10:14.163Z,9.90
2023-05-10T01:12:48.877Z,9.98
2023-05-10T01:15:20.876Z,9.40
2023-05-10T01:17:52.633Z,8.70
2023-05-10T01:20:23.198Z,10.02
2023-05-10T01:23:16.429Z,10.65
2023-05-10T01:25:52.436Z,11.35
2023-05-10T01:28:56.173Z,9.20
2023-05-10T01:31:34.908Z,8.77
2023-05-10T01:34:19.892Z,9.50
2023-05-10T01:36:56.550Z,9.57
2023-05-10T01:39:42.004Z,9.88
2023-05-10T01:42:20.392Z,8.98
2023-05-10T01:45:13.717Z,8.63
2023-05-10T01:48:10.872Z,9.38
2023-05-10T01:50:46.790Z,9.02
2023-05-10T01:53:21.851Z,9.13
2023-05-10T01:55:55.884Z,9.25
2023-05-10T01:58:35.335Z,9.65
2023-05-10T02:01:08.120Z,10.55
2023-05-10T02:03:43.158Z,9.00
2023-05-10T02:06:16.506Z,9.20
2023-05-10T02:08:50.018Z,9.63
2023-05-10T02:11:22.235Z,9.40
2023-05-10T02:13:55.237Z,8.52
2023-05-10T02:16:34.153Z,9.13
2023-05-10T02:19:05.833Z,11.65
2023-05-10T02:21:37.227Z,11.27
2023-05-10T02:24:08.956Z,9.75
2023-05-10T02:26:41.800Z,10.85
2023-05-10T02:29:15.612Z,10.73
2023-05-10T02:31:46.925Z,10.13
2023-05-10T02:36:49.620Z,11.40
2023-05-10T02:39:22.888Z,11.50
2023-05-10T02:41:54.098Z,9.38
2023-05-10T02:44:26.730Z,12.07
2023-05-10T02:46:59.202Z,11.40
2023-05-10T02:49:29.729Z,12.48
2023-05-10T02:52:07.886Z,13.30
2023-05-10T02:54:47.344Z,12.13
2023-05-10T02:57:23.905Z,13.10
2023-05-10T02:59:54.868Z,15.40
2023-05-10T03:02:25.096Z,14.48
2023-05-10T03:04:55.557Z,15.17
2023-05-10T03:07:26.680Z,11.97
2023-05-10T03:09:57.199Z,13.77
2023-05-10T03:12:54.260Z,12.70
2023-05-10T03:15:42.552Z,13.50
2023-05-10T03:18:34.660Z,13.77
2023-05-10T03:21:12.335Z,12.18
2023-05-10T03:23:54.201Z,12.00
2023-05-10T03:26:29.352Z,11.45
2023-05-10T03:29:11.830Z,12.65
2023-05-10T03:31:42.786Z,12.52
2023-05-10T03:34:13.039Z,12.30
2023-05-10T03:36:43.223Z,12.02
2023-05-10T03:39:13.876Z,15.02
2023-05-10T03:41:44.815Z,12.63
2023-05-10T03:44:15.126Z,12.35
2023-05-10T03:46:45.354Z,11.95
2023-05-10T03:49:16.727Z,17.15
2023-05-10T03:51:47.456Z,13.30
2023-05-10T03:54:18.203Z,12.48
2023-05-10T03:56:51.232Z,13.52
2023-05-10T03:59:23.397Z,12.65
2023-05-10T04:01:55.078Z,13.13
2023-05-10T04:04:27.473Z,12.38
2023-05-10T04:06:58.171Z,13.15
2023-05-10T04:09:28.617Z,13.17
2023-05-10T04:11:58.793Z,13.40
2023-05-10T04:14:28.797Z,12.40
2023-05-10T04:16:58.902Z,14.77
2023-05-10T04:19:36.123Z,14.02
2023-05-10T04:22:06.760Z,14.50
2023-05-10T04:24:37.053Z,13.35
2023-05-10T04:27:07.085Z,13.27
2023-05-10T04:29:38.123Z,14.50
2023-05-10T04:34:38.071Z,13.82
2023-05-10T04:37:08.226Z,14.25
2023-05-10T04:39:40.291Z,14.63
2023-05-10T04:42:12.363Z,15.38
2023-05-10T04:44:42.986Z,14.50
2023-05-10T04:47:13.215Z,14.60
2023-05-10T04:49:43.423Z,16.13
2023-05-10T04:52:13.673Z,15.52
2023-05-10T04:54:43.952Z,17.30
2023-05-10T04:57:14.285Z,15.45
2023-05-10T04:59:44.899Z,15.37
2023-05-10T05:02:15.348Z,14.37
2023-05-10T05:04:45.623Z,14.13
2023-05-10T05:07:15.968Z,13.63
2023-05-10T05:09:46.022Z,14.18
2023-05-10T05:12:17.329Z,14.73
2023-05-10T05:14:47.467Z,13.85
2023-05-10T05:17:17.807Z,15.52
2023-05-10T05:19:47.909Z,13.20
2023-05-10T05:22:19.466Z,13.27
2023-05-10T05:24:50.065Z,14.52
2023-05-10T05:27:20.815Z,13.80
2023-05-10T05:29:50.921Z,14.32
2023-05-10T05:32:21.152Z,13.82
2023-05-10T05:34:51.545Z,14.37
2023-05-10T05:37:24.317Z,14.13
2023-05-10T05:39:54.822Z,14.43
2023-05-10T05:42:24.976Z,16.03
2023-05-10T05:44:55.030Z,14.02
2023-05-10T05:47:25.085Z,14.70
2023-05-10T05:49:55.108Z,15.13
2023-05-10T05:52:25.094Z,14.50
2023-05-10T05:54:55.315Z,14.32
2023-05-10T05:57:26.187Z,13.27
2023-05-10T05:59:56.369Z,13.10
2023-05-10T06:02:26.705Z,13.80
2023-05-10T06:04:56.917Z,13.23
2023-05-10T06:07:27.126Z,13.18
2023-05-10T06:09:57.282Z,13.70
2023-05-10T06:12:27.346Z,13.05
2023-05-10T06:14:57.508Z,13.63
2023-05-10T06:17:28.468Z,12.43
2023-05-10T06:19:59.308Z,12.18
2023-05-10T06:22:29.502Z,13.32
2023-05-10T06:24:59.647Z,12.68
2023-05-10T06:27:29.783Z,11.82
2023-05-10T06:30:11.702Z,11.07
2023-05-10T06:32:43.521Z,13.32
2023-05-10T06:35:13.846Z,13.47
2023-05-10T06:37:44.141Z,14.33
2023-05-10T06:40:15.241Z,13.68
2023-05-10T06:42:45.502Z,13.73
2023-05-10T06:45:16.535Z,11.95
2023-05-10T06:50:16.958Z,11.18
2023-05-10T06:52:47.272Z,12.32
2023-05-10T06:55:17.651Z,10.73
2023-05-10T06:57:47.961Z,11.37
2023-05-10T07:00:19.166Z,11.63
2023-05-10T07:02:50.211Z,10.98
2023-05-10T07:05:20.868Z,11.70
2023-05-10T07:07:51.549Z,11.85
2023-05-10T07:10:21.813Z,11.30
2023-05-10T07:12:52.042Z,11.13
2023-05-10T07:15:22.346Z,11.13
2023-05-10T07:17:52.814Z,11.75
2023-05-10T07:20:23.407Z,11.73
2023-05-10T07:22:53.589Z,11.57
2023-05-10T07:25:23.591Z,11.25
2023-05-10T07:27:54.278Z,10.75
2023-05-10T07:30:24.642Z,10.13
2023-05-10T07:32:54.910Z,11.37
2023-05-10T07:35:24.981Z,11.63
2023-05-10T07:37:54.965Z,11.38
2023-05-10T07:40:25.237Z,12.75
2023-05-10T07:42:55.599Z,11.10
2023-05-10T07:45:26.507Z,11.50
2023-05-10T07:47:57.208Z,11.20
2023-05-10T07:50:27.545Z,12.02
2023-05-10T07:52:58.211Z,12.63
2023-05-10T07:55:28.412Z,11.93
2023-05-10T07:57:58.681Z,10.83
2023-05-10T08:00:29.035Z,12.77
2023-05-10T08:02:59.613Z,10.90
2023-05-10T08:05:29.928Z,11.30
2023-05-10T08:08:00.010Z,12.15
2023-05-10T08:10:30.028Z,10.98
2023-05-10T08:13:01.692Z,11.60
2023-05-10T08:15:31.887Z,11.80
2023-05-10T08:18:02.137Z,11.88
2023-05-10T08:20:32.307Z,11.73
2023-05-10T08:23:02.390Z,12.15
2023-05-10T08:25:32.598Z,11.05
2023-05-10T08:28:02.814Z,12.30
2023-05-10T08:30:33.371Z,11.15
2023-05-10T08:33:03.912Z,11.00
2023-05-10T08:35:36.564Z,11.45
2023-05-10T08:38:06.747Z,11.20
2023-05-10T08:40:39.244Z,10.95
2023-05-10T08:43:12.023Z,11.95
2023-05-10T08:45:51.416Z,11.40
2023-05-10T08:48:21.717Z,11.15
2023-05-10T08:50:54.420Z,11.20
2023-05-10T08:53:28.207Z,11.18
2023-05-10T08:55:59.424Z,10.52
2023-05-10T09:01:01.666Z,10.45
2023-05-10T09:03:32.024Z,10.82
2023-05-10T09:06:02.421Z,10.75
2023-05-10T09:08:34.337Z,10.23
2023-05-10T09:11:06.229Z,11.35
2023-05-10T09:13:36.663Z,11.27
2023-05-10T09:16:20.411Z,10.50
2023-05-10T09:18:52.784Z,9.88
2023-05-10T09:21:23.950Z,11.10
2023-05-10T09:23:57.410Z,9.00
2023-05-10T09:26:28.215Z,9.95
2023-05-10T09:29:02.469Z,10.20
2023-05-10T09:31:51.431Z,9.50
2023-05-10T09:34:23.492Z,9.55
2023-05-10T09:37:04.055Z,10.63
2023-05-10T09:39:41.514Z,10.00
2023-05-10T09:42:13.388Z,9.68
2023-05-10T09:44:44.274Z,10.23
2023-05-10T09:47:20.824Z,9.85
2023-05-10T09:49:54.644Z,10.30
2023-05-10T09:52:25.001Z,9.93
2023-05-10T09:54:58.513Z,10.77
2023-05-10T09:57:29.448Z,10.70
2023-05-10T10:00:00.871Z,10.63
2023-05-10T10:02:35.219Z,10.27
2023-05-10T10:05:09.192Z,11.63
2023-05-10T10:07:39.873Z,13.07
2023-05-10T10:10:14.834Z,11.73
2023-05-10T10:12:45.526Z,11.43
2023-05-10T10:15:16.942Z,12.43
2023-05-10T10:17:48.317Z,13.05
2023-05-10T10:22:50.617Z,11.63
2023-05-10T10:25:22.832Z,12.40
2023-05-10T10:27:56.192Z,12.02
2023-05-10T10:30:49.509Z,12.48
2023-05-10T10:33:55.396Z,12.20
2023-05-10T10:36:25.835Z,11.70
2023-05-10T10:38:56.770Z,13.00
2023-05-10T10:41:58.895Z,12.85
2023-05-10T10:44:36.956Z,15.90
2023-05-10T10:47:26.408Z,15.57
2023-05-10T10:50:08.250Z,19.13
2023-05-10T10:52:41.167Z,26.02
2023-05-10T10:55:18.325Z,35.90
2023-05-10T10:57:51.874Z,30.38
2023-05-10T11:00:23.747Z,32.83
2023-05-10T11:03:12.125Z,30.85
2023-05-10T11:05:45.326Z,30.10
2023-05-10T11:08:36.411Z,28.48
2023-05-10T11:11:12.970Z,29.55
2023-05-10T11:13:47.245Z,21.92
2023-05-10T11:16:27.800Z,22.17
2023-05-10T11:19:11.165Z,18.73
2023-05-10T11:22:17.105Z,20.35
2023-05-10T11:25:01.969Z,20.05
2023-05-10T11:27:32.441Z,19.75
2023-05-10T11:30:06.733Z,20.35
2023-05-10T11:32:37.240Z,21.17
2023-05-10T11:35:16.688Z,18.07
2023-05-10T11:37:51.611Z,18.65
2023-05-10T13:19:20.745Z,15.48
2023-05-10T13:21:51.023Z,13.90
2023-05-10T13:24:21.290Z,15.00
2023-05-10T13:26:51.881Z,19.08
2023-05-10T13:29:22.560Z,12.90
2023-05-10T13:31:53.277Z,16.67
2023-05-10T13:34:27.556Z,12.82
2023-05-10T13:36:59.463Z,13.02
2023-05-10T13:39:30.076Z,13.43
2023-05-10T13:42:00.395Z,14.43
2023-05-10T13:44:30.747Z,12.43
2023-05-10T13:47:01.283Z,13.85
2023-05-10T13:49:31.999Z,13.48
2023-05-10T13:52:02.340Z,12.80
2023-05-10T13:54:33.543Z,12.63
2023-05-10T13:59:37.476Z,13.23
2023-05-10T14:02:07.910Z,13.57
2023-05-10T14:04:38.882Z,15.40
2023-05-10T14:07:09.840Z,13.43
2023-05-10T14:09:40.075Z,13.75
2023-05-10T14:12:10.302Z,12.82
2023-05-10T14:14:40.645Z,13.32
2023-05-10T14:17:12.406Z,15.35
2023-05-10T14:19:42.937Z,13.77
2023-05-10T14:22:13.280Z,13.80
2023-05-10T14:24:43.307Z,13.63
2023-05-10T14:27:13.604Z,13.98
2023-05-10T14:29:43.812Z,15.02
2023-05-10T14:32:14.192Z,14.15
2023-05-10T14:34:44.427Z,15.43
2023-05-10T14:37:15.265Z,14.77
2023-05-10T14:39:46.098Z,14.73
2023-05-10T14:42:16.270Z,15.45
2023-05-10T14:44:46.435Z,15.07
2023-05-10T14:47:16.631Z,16.45
2023-05-10T14:49:46.934Z,16.30
2023-05-10T14:55:05.598Z,17.00
2023-05-10T14:57:35.812Z,17.75
2023-05-10T15:00:07.153Z,16.70
2023-05-10T15:02:37.884Z,16.95
2023-05-10T15:05:09.349Z,15.60
2023-05-10T15:07:39.841Z,17.02
2023-05-10T15:10:10.506Z,15.77
2023-05-10T15:12:41.373Z,16.17
2023-05-10T15:15:11.731Z,15.05
2023-05-10T15:17:41.951Z,15.88
2023-05-10T15:20:12.524Z,16.00
2023-05-10T15:22:42.854Z,15.17
2023-05-10T15:25:13.210Z,16.60
2023-05-10T15:27:43.495Z,15.70
2023-05-10T15:30:14.236Z,15.20
2023-05-10T15:32:44.915Z,16.20
2023-05-10T15:35:15.420Z,15.73
2023-05-10T15:37:45.800Z,15.70
2023-05-10T15:40:15.886Z,15.43
2023-05-10T15:42:45.897Z,14.45
2023-05-10T15:45:16.635Z,15.38
2023-05-10T15:50:19.508Z,14.98
2023-05-10T15:52:49.902Z,14.80
2023-05-10T15:55:20.274Z,14.67
2023-05-10T15:57:51.153Z,14.23
2023-05-10T16:00:21.534Z,15.00
2023-05-10T16:02:52.217Z,14.43
2023-05-10T16:05:22.698Z,15.20
2023-05-10T16:07:53.035Z,16.13
2023-05-10T16:10:23.227Z,19.70
2023-05-10T16:12:53.490Z,15.05
2023-05-10T16:15:26.454Z,15.90
2023-05-10T16:17:56.987Z,15.45
2023-05-10T16:20:27.419Z,15.23
2023-05-10T16:22:58.440Z,16.70
2023-05-10T16:27:58.903Z,16.88
2023-05-10T16:30:31.500Z,16.80
2023-05-10T16:33:03.970Z,16.63
2023-05-10T16:35:34.362Z,17.48
2023-05-10T16:38:04.408Z,17.77
2023-05-10T16:40:35.822Z,16.35
2023-05-10T16:43:06.000Z,17.58
2023-05-10T16:45:36.141Z,17.53
2023-05-10T16:48:06.308Z,18.17
2023-05-10T16:50:36.556Z,20.53
2023-05-10T16:53:06.620Z,18.30
2023-05-10T16:55:36.616Z,17.02
2023-05-10T16:58:06.768Z,18.67
2023-05-10T17:00:36.953Z,16.83
2023-05-10T17:03:07.294Z,16.58
2023-05-10T17:05:37.822Z,17.00
2023-05-10T17:08:08.047Z,16.27
2023-05-10T17:10:41.915Z,16.50
2023-05-10T17:13:12.104Z,17.77
2023-05-10T17:15:42.328Z,16.05
2023-05-10T17:18:12.945Z,16.42
2023-05-10T17:20:45.960Z,15.53
2023-05-10T17:23:16.112Z,14.85
2023-05-10T17:25:46.174Z,17.75
2023-05-10T17:28:16.299Z,15.45
2023-05-10T17:30:46.880Z,13.50
2023-05-10T17:33:17.130Z,13.25
2023-05-10T17:35:48.777Z,13.20
2023-05-10T17:38:19.300Z,12.98
2023-05-10T17:40:49.586Z,11.80
2023-05-10T17:43:19.871Z,12.57
2023-05-10T17:45:53.352Z,11.32
2023-05-10T17:48:23.545Z,12.52
2023-05-10T17:50:54.177Z,11.77
2023-05-10T17:53:25.287Z,13.37
2023-05-10T17:55:56.244Z,11.82
2023-05-10T17:58:26.437Z,15.00
2023-05-10T18:00:57.277Z,13.68
2023-05-10T18:03:27.643Z,13.00
2023-05-10T18:05:58.033Z,11.50
2023-05-10T18:08:29.718Z,13.43
2023-05-10T18:11:00.380Z,12.68
2023-05-10T18:13:30.879Z,10.65
2023-05-10T18:16:01.749Z,14.37
2023-05-10T18:18:32.207Z,11.15
2023-05-10T18:21:03.838Z,12.47
2023-05-10T18:23:34.293Z,13.38
2023-05-10T18:26:05.569Z,11.70
2023-05-10T18:28:35.931Z,11.40
2023-05-10T18:31:06.229Z,13.75
2023-05-10T18:33:36.617Z,11.48
2023-05-10T18:36:07.426Z,10.13
2023-05-10T18:38:37.806Z,10.15
2023-05-10T18:41:09.054Z,11.80
2023-05-10T18:46:09.029Z,9.82
2023-05-10T18:48:39.281Z,10.60
2023-05-10T18:51:09.758Z,14.33
2023-05-10T18:53:40.120Z,10.27
2023-05-10T18:56:10.482Z,11.63
2023-05-10T18:58:40.915Z,11.20
2023-05-10T19:01:11.899Z,11.33
2023-05-10T19:03:41.965Z,9.93
2023-05-10T19:06:12.532Z,10.18
2023-05-10T19:08:42.724Z,8.43
2023-05-10T19:11:13.073Z,8.68
2023-05-10T19:13:43.099Z,8.45
2023-05-10T19:16:18.674Z,8.80
2023-05-10T19:18:52.191Z,8.35
2023-05-10T19:21:23.209Z,7.68
2023-05-10T19:23:53.528Z,10.20
2023-05-10T19:26:25.794Z,9.23
2023-05-10T19:28:56.840Z,8.27
2023-05-10T19:31:27.633Z,7.93
2023-05-10T19:34:00.649Z,8.57
2023-05-10T19:36:31.155Z,10.32
2023-05-10T19:39:02.477Z,11.10
2023-05-10T19:41:32.652Z,9.00
2023-05-10T19:44:02.859Z,8.32
2023-05-10T19:46:33.711Z,9.60
2023-05-10T19:49:04.045Z,8.98
2023-05-10T19:51:34.211Z,8.88
2023-05-10T19:54:04.498Z,7.70
2023-05-10T19:56:34.800Z,8.45
2023-05-10T19:59:07.682Z,8.65
2023-05-10T20:01:38.076Z,7.93
2023-05-10T20:04:08.636Z,8.27
2023-05-10T20:06:38.957Z,8.17
2023-05-10T20:09:09.573Z,7.77
2023-05-10T20:11:39.827Z,8.50
2023-05-10T20:14:11.343Z,7.82
2023-05-10T20:16:41.578Z,8.35
2023-05-10T20:19:11.892Z,9.85
2023-05-10T20:21:42.255Z,8.90
2023-05-10T20:24:12.606Z,10.55
2023-05-10T20:26:43.542Z,10.50
2023-05-10T20:29:15.640Z,11.27
2023-05-10T20:31:45.838Z,9.70
2023-05-10T20:34:16.136Z,9.07
2023-05-10T20:36:46.371Z,9.52
2023-05-10T20:39:17.336Z,8.85
2023-05-10T20:41:47.397Z,10.30
2023-05-10T20:44:18.105Z,11.50
2023-05-10T20:46:48.395Z,9.27
2023-05-10T20:49:18.398Z,9.93
2023-05-10T20:51:48.744Z,10.93
2023-05-10T20:54:18.965Z,12.38
2023-05-10T20:56:49.176Z,11.45
2023-05-10T20:59:20.849Z,11.25
2023-05-10T21:01:51.189Z,12.95
2023-05-10T21:04:21.516Z,11.63
2023-05-10T21:06:51.981Z,10.50
2023-05-10T21:09:22.007Z,10.32
2023-05-10T21:11:53.317Z,13.65
2023-05-10T21:16:53.667Z,12.75
2023-05-10T21:19:24.309Z,12.80
2023-05-10T21:21:54.525Z,11.07
2023-05-10T21:24:25.963Z,11.88
2023-05-10T21:26:56.163Z,11.93
2023-05-10T21:29:26.478Z,13.10
2023-05-10T21:31:56.740Z,10.75
2023-05-10T21:34:26.976Z,11.55
2023-05-10T21:36:57.425Z,11.40
2023-05-10T21:39:27.694Z,13.67
2023-05-10T21:41:58.461Z,11.73
2023-05-10T21:44:28.670Z,13.57
2023-05-10T21:46:58.915Z,13.18
2023-05-10T21:49:29.433Z,15.75
2023-05-10T21:51:59.571Z,13.83
2023-05-10T21:54:29.863Z,13.57
2023-05-10T21:57:00.994Z,12.97
2023-05-10T22:02:00.877Z,13.93
2023-05-10T22:04:31.156Z,13.68
2023-05-10T22:07:01.732Z,13.18
2023-05-10T22:09:31.961Z,16.30
2023-05-10T22:12:02.299Z,15.03
2023-05-10T22:14:33.089Z,13.93
2023-05-10T22:17:03.441Z,16.45
2023-05-10T22:19:33.689Z,13.57
2023-05-10T22:22:03.800Z,17.77
2023-05-10T22:24:34.237Z,19.57
2023-05-10T22:27:05.401Z,23.73
2023-05-10T22:29:35.497Z,17.45
2023-05-10T22:32:08.033Z,15.60
2023-05-10T22:34:38.440Z,16.27
2023-05-10T22:37:08.704Z,19.17
2023-05-10T22:39:38.948Z,18.15
2023-05-10T22:42:09.026Z,15.50
2023-05-10T22:44:39.865Z,15.32
2023-05-10T22:47:11.277Z,15.57
2023-05-10T22:49:41.546Z,16.25
2023-05-10T22:52:13.628Z,21.45
2023-05-10T22:55:07.994Z,20.17
2023-05-10T22:57:38.632Z,15.32
2023-05-10T23:00:09.789Z,18.23
2023-05-10T23:02:39.960Z,17.35
2023-05-10T23:05:10.842Z,16.33
2023-05-10T23:07:41.006Z,21.35
2023-05-10T23:10:11.366Z,17.33
2023-05-10T23:12:41.561Z,16.60
2023-05-10T23:15:12.121Z,20.17
2023-05-10T23:17:42.406Z,16.85
2023-05-10T23:20:13.344Z,18.35
2023-05-10T23:22:43.574Z,20.83
2023-05-10T23:25:14.803Z,19.48
2023-05-10T23:27:44.979Z,19.63
2023-05-10T23:30:15.652Z,18.58
2023-05-10T23:32:46.184Z,20.05
2023-05-10T23:35:16.594Z,20.77
2023-05-10T23:37:46.712Z,21.85
2023-05-10T23:40:17.932Z,20.55
2023-05-10T23:42:48.396Z,18.95
2023-05-10T23:45:18.719Z,21.20
2023-05-10T23:47:48.984Z,24.23
2023-05-10T23:50:19.533Z,22.92
2023-05-10T23:52:49.928Z,23.20
2023-05-10T23:55:20.264Z,23.90
2023-05-10T23:57:50.552Z,21.73
